sensor_id;sensor_type;location;lat;lon;timestamp;pressure;altitude;pressure_sealevel;temperature;humidity
31538;BME280;18147;51.952;6.146;2023-04-04T00:00:11;102966.78;;;1.72;100.00
31538;BME280;18147;51.952;6.146;2023-04-04T00:02:37;102965.94;;;1.80;100.00
31538;BME280;18147;51.952;6.146;2023-04-04T00:05:04;102964.41;;;2.13;100.00
31538;BME280;18147;51.952;6.146;2023-04-04T00:07:29;102972.03;;;1.75;100.00
31538;BME280;18147;51.952;6.146;2023-04-04T00:09:55;102965.03;;;1.74;100.00
31538;BME280;18147;51.952;6.146;2023-04-04T00:12:20;102972.16;;;1.87;100.00
31538;BME280;18147;51.952;6.146;2023-04-04T00:14:47;102961.72;;;2.05;100.00
31538;BME280;18147;51.952;6.146;2023-04-04T00:17:12;102963.41;;;1.91;100.00
31538;BME280;18147;51.952;6.146;2023-04-04T00:19:38;102961.56;;;1.76;100.00
31538;BME280;18147;51.952;6.146;2023-04-04T00:22:03;102953.81;;;2.05;100.00
31538;BME280;18147;51.952;6.146;2023-04-04T00:24:29;102958.19;;;2.00;99.29
31538;BME280;18147;51.952;6.146;2023-04-04T00:26:55;102952.00;;;1.95;100.00
31538;BME280;18147;51.952;6.146;2023-04-04T00:29:21;102953.69;;;1.84;99.91
31538;BME280;18147;51.952;6.146;2023-04-04T00:31:59;102949.38;;;1.94;98.10
31538;BME280;18147;51.952;6.146;2023-04-04T00:34:25;102945.91;;;1.96;97.39
31538;BME280;18147;51.952;6.146;2023-04-04T00:36:50;102962.53;;;1.95;96.04
31538;BME280;18147;51.952;6.146;2023-04-04T00:39:17;102955.56;;;1.97;94.88
31538;BME280;18147;51.952;6.146;2023-04-04T00:41:42;102944.97;;;1.87;96.42
31538;BME280;18147;51.952;6.146;2023-04-04T00:44:23;102942.34;;;1.88;96.58
31538;BME280;18147;51.952;6.146;2023-04-04T00:46:50;102939.75;;;1.91;97.11
31538;BME280;18147;51.952;6.146;2023-04-04T00:49:16;102941.44;;;1.81;95.02
31538;BME280;18147;51.952;6.146;2023-04-04T00:51:42;102934.44;;;1.87;93.71
31538;BME280;18147;51.952;6.146;2023-04-04T00:54:08;102938.88;;;1.98;92.65
31538;BME280;18147;51.952;6.146;2023-04-04T00:56:36;102945.94;;;2.01;94.32
31538;BME280;18147;51.952;6.146;2023-04-04T00:59:02;102944.97;;;1.88;95.56
31538;BME280;18147;51.952;6.146;2023-04-04T01:01:28;102942.31;;;1.84;95.69
31538;BME280;18147;51.952;6.146;2023-04-04T01:03:55;102935.34;;;1.92;96.02
31538;BME280;18147;51.952;6.146;2023-04-04T01:06:21;102937.91;;;1.81;94.15
31538;BME280;18147;51.952;6.146;2023-04-04T01:08:47;102941.34;;;1.71;95.24
31538;BME280;18147;51.952;6.146;2023-04-04T01:11:14;102939.59;;;1.74;96.82
31538;BME280;18147;51.952;6.146;2023-04-04T01:13:39;102930.91;;;1.85;96.49
31538;BME280;18147;51.952;6.146;2023-04-04T01:16:15;102927.47;;;1.92;95.00
31538;BME280;18147;51.952;6.146;2023-04-04T01:18:42;102926.63;;;1.97;95.58
31538;BME280;18147;51.952;6.146;2023-04-04T01:21:12;102928.38;;;1.97;96.20
31538;BME280;18147;51.952;6.146;2023-04-04T01:26:20;102922.88;;;1.63;96.72
31538;BME280;18147;51.952;6.146;2023-04-04T01:28:45;102922.06;;;1.72;96.90
31538;BME280;18147;51.952;6.146;2023-04-04T01:31:13;102921.16;;;1.68;97.89
31538;BME280;18147;51.952;6.146;2023-04-04T01:33:54;102921.94;;;1.55;97.82
31538;BME280;18147;51.952;6.146;2023-04-04T01:36:31;102919.44;;;1.73;97.73
31538;BME280;18147;51.952;6.146;2023-04-04T01:39:04;102919.41;;;1.70;99.02
31538;BME280;18147;51.952;6.146;2023-04-04T01:41:33;102928.22;;;1.72;99.38
31538;BME280;18147;51.952;6.146;2023-04-04T01:44:16;102932.50;;;1.61;99.04
31538;BME280;18147;51.952;6.146;2023-04-04T01:46:43;102935.09;;;1.57;99.11
31538;BME280;18147;51.952;6.146;2023-04-04T01:49:09;102933.34;;;1.57;100.00
31538;BME280;18147;51.952;6.146;2023-04-04T01:51:35;102933.38;;;1.63;100.00
31538;BME280;18147;51.952;6.146;2023-04-04T01:54:01;102935.97;;;1.57;100.00
31538;BME280;18147;51.952;6.146;2023-04-04T01:56:26;102937.75;;;1.60;100.00
31538;BME280;18147;51.952;6.146;2023-04-04T01:58:52;102928.09;;;1.57;99.86
31538;BME280;18147;51.952;6.146;2023-04-04T02:01:33;102928.94;;;1.54;100.00
31538;BME280;18147;51.952;6.146;2023-04-04T02:03:59;102937.34;;;1.15;100.00
31538;BME280;18147;51.952;6.146;2023-04-04T02:06:25;102934.03;;;1.33;100.00
31538;BME280;18147;51.952;6.146;2023-04-04T02:08:51;102930.53;;;1.34;100.00
31538;BME280;18147;51.952;6.146;2023-04-04T02:11:23;102931.44;;;1.38;100.00
31538;BME280;18147;51.952;6.146;2023-04-04T02:13:58;102941.63;;;1.02;100.00
31538;BME280;18147;51.952;6.146;2023-04-04T02:16:25;102937.28;;;1.06;100.00
31538;BME280;18147;51.952;6.146;2023-04-04T02:18:50;102947.00;;;1.15;100.00
31538;BME280;18147;51.952;6.146;2023-04-04T02:21:17;102935.66;;;1.20;100.00
31538;BME280;18147;51.952;6.146;2023-04-04T02:23:42;102946.25;;;1.26;100.00
31538;BME280;18147;51.952;6.146;2023-04-04T02:26:08;102947.09;;;1.25;100.00
31538;BME280;18147;51.952;6.146;2023-04-04T02:28:38;102947.91;;;1.18;100.00
31538;BME280;18147;51.952;6.146;2023-04-04T02:31:04;102948.00;;;1.26;100.00
31538;BME280;18147;51.952;6.146;2023-04-04T02:33:32;102943.56;;;1.22;100.00
31538;BME280;18147;51.952;6.146;2023-04-04T02:36:01;102944.41;;;1.18;100.00
31538;BME280;18147;51.952;6.146;2023-04-04T02:38:27;102947.91;;;1.18;100.00
31538;BME280;18147;51.952;6.146;2023-04-04T02:41:03;102940.84;;;1.11;100.00
31538;BME280;18147;51.952;6.146;2023-04-04T02:43:28;102945.19;;;1.09;100.00
31538;BME280;18147;51.952;6.146;2023-04-04T02:45:54;102932.91;;;1.07;100.00
31538;BME280;18147;51.952;6.146;2023-04-04T02:48:25;102939.97;;;1.14;100.00
31538;BME280;18147;51.952;6.146;2023-04-04T02:50:55;102934.72;;;1.12;100.00
31538;BME280;18147;51.952;6.146;2023-04-04T02:53:21;102931.94;;;0.98;100.00
31538;BME280;18147;51.952;6.146;2023-04-04T02:56:03;102927.41;;;0.82;100.00
31538;BME280;18147;51.952;6.146;2023-04-04T02:58:33;102931.84;;;0.88;100.00
31538;BME280;18147;51.952;6.146;2023-04-04T03:00:59;102930.09;;;0.87;100.00
31538;BME280;18147;51.952;6.146;2023-04-04T03:03:42;102931.06;;;0.98;100.00
31538;BME280;18147;51.952;6.146;2023-04-04T03:06:17;102929.97;;;0.76;100.00
31538;BME280;18147;51.952;6.146;2023-04-04T03:08:42;102930.19;;;0.96;100.00
31538;BME280;18147;51.952;6.146;2023-04-04T03:11:17;102925.00;;;1.00;100.00
31538;BME280;18147;51.952;6.146;2023-04-04T03:13:46;102929.94;;;0.74;100.00
31538;BME280;18147;51.952;6.146;2023-04-04T03:16:22;102933.03;;;0.38;100.00
31538;BME280;18147;51.952;6.146;2023-04-04T03:18:50;102919.19;;;0.51;100.00
31538;BME280;18147;51.952;6.146;2023-04-04T03:21:18;102918.34;;;0.54;100.00
31538;BME280;18147;51.952;6.146;2023-04-04T03:23:43;102920.19;;;0.61;100.00
31538;BME280;18147;51.952;6.146;2023-04-04T03:26:09;102922.59;;;0.44;100.00
31538;BME280;18147;51.952;6.146;2023-04-04T03:28:35;102923.44;;;0.42;100.00
31538;BME280;18147;51.952;6.146;2023-04-04T03:31:04;102924.28;;;0.38;100.00
31538;BME280;18147;51.952;6.146;2023-04-04T03:34:09;102917.28;;;0.40;100.00
31538;BME280;18147;51.952;6.146;2023-04-04T03:36:35;102910.34;;;0.45;100.00
31538;BME280;18147;51.952;6.146;2023-04-04T03:39:00;102912.22;;;0.54;100.00
31538;BME280;18147;51.952;6.146;2023-04-04T03:41:29;102906.84;;;0.44;100.00
31538;BME280;18147;51.952;6.146;2023-04-04T03:43:55;102902.53;;;0.48;100.00
31538;BME280;18147;51.952;6.146;2023-04-04T03:46:26;102900.88;;;0.56;100.00
31538;BME280;18147;51.952;6.146;2023-04-04T03:48:53;102896.41;;;0.47;100.00
31538;BME280;18147;51.952;6.146;2023-04-04T03:51:33;102892.13;;;0.56;100.00
31538;BME280;18147;51.952;6.146;2023-04-04T03:54:02;102891.09;;;0.44;100.00
31538;BME280;18147;51.952;6.146;2023-04-04T03:56:29;102886.50;;;0.25;100.00
31538;BME280;18147;51.952;6.146;2023-04-04T03:59:11;102901.75;;;-0.13;100.00
31538;BME280;18147;51.952;6.146;2023-04-04T04:01:37;102904.19;;;-0.26;100.00
31538;BME280;18147;51.952;6.146;2023-04-04T04:04:02;102896.28;;;-0.29;100.00
31538;BME280;18147;51.952;6.146;2023-04-04T04:06:28;102910.06;;;-0.42;100.00
31538;BME280;18147;51.952;6.146;2023-04-04T04:08:53;102906.41;;;-0.53;100.00
31538;BME280;18147;51.952;6.146;2023-04-04T04:11:20;102912.81;;;-0.34;100.00
31538;BME280;18147;51.952;6.146;2023-04-04T04:13:46;102907.72;;;-0.22;100.00
31538;BME280;18147;51.952;6.146;2023-04-04T04:16:11;102912.75;;;-0.36;100.00
31538;BME280;18147;51.952;6.146;2023-04-04T04:18:37;102915.22;;;-0.46;100.00
31538;BME280;18147;51.952;6.146;2023-04-04T04:21:33;102906.44;;;-0.50;100.00
31538;BME280;18147;51.952;6.146;2023-04-04T04:24:47;102900.53;;;-0.37;100.00
31538;BME280;18147;51.952;6.146;2023-04-04T04:27:12;102912.69;;;-0.42;100.00
31538;BME280;18147;51.952;6.146;2023-04-04T04:29:41;102917.75;;;-0.53;100.00
31538;BME280;18147;51.952;6.146;2023-04-04T04:32:07;102913.34;;;-0.55;100.00
31538;BME280;18147;51.952;6.146;2023-04-04T04:34:43;102913.31;;;-0.57;100.00
31538;BME280;18147;51.952;6.146;2023-04-04T04:37:08;102909.81;;;-0.56;100.00
31538;BME280;18147;51.952;6.146;2023-04-04T04:39:57;102900.34;;;-0.49;100.00
31538;BME280;18147;51.952;6.146;2023-04-04T04:42:34;102902.84;;;-0.57;100.00
31538;BME280;18147;51.952;6.146;2023-04-04T04:45:01;102904.72;;;-0.48;100.00
31538;BME280;18147;51.952;6.146;2023-04-04T04:47:53;102902.03;;;-0.53;100.00
31538;BME280;18147;51.952;6.146;2023-04-04T04:50:34;102916.41;;;-0.81;100.00
31538;BME280;18147;51.952;6.146;2023-04-04T04:53:01;102901.72;;;-0.72;100.00
31538;BME280;18147;51.952;6.146;2023-04-04T04:55:26;102912.25;;;-0.68;100.00
31538;BME280;18147;51.952;6.146;2023-04-04T04:58:01;102908.16;;;-0.52;100.00
31538;BME280;18147;51.952;6.146;2023-04-04T05:00:43;102900.34;;;-0.49;100.00
31538;BME280;18147;51.952;6.146;2023-04-04T05:03:09;102906.56;;;-0.41;100.00
31538;BME280;18147;51.952;6.146;2023-04-04T05:06:04;102909.22;;;-0.39;100.00
31538;BME280;18147;51.952;6.146;2023-04-04T05:08:31;102909.19;;;-0.42;100.00
31538;BME280;18147;51.952;6.146;2023-04-04T05:11:03;102908.69;;;-0.73;100.00
31538;BME280;18147;51.952;6.146;2023-04-04T05:13:32;102913.84;;;-0.79;100.00
31538;BME280;18147;51.952;6.146;2023-04-04T05:19:05;102915.41;;;-0.89;100.00
31538;BME280;18147;51.952;6.146;2023-04-04T05:21:59;102926.06;;;-0.78;100.00
31538;BME280;18147;51.952;6.146;2023-04-04T05:24:42;102915.69;;;-0.70;100.00
31538;BME280;18147;51.952;6.146;2023-04-04T05:27:10;102919.25;;;-0.67;100.00
31538;BME280;18147;51.952;6.146;2023-04-04T05:29:51;102929.09;;;-0.55;100.00
31538;BME280;18147;51.952;6.146;2023-04-04T05:32:16;102927.41;;;-0.50;100.00
31538;BME280;18147;51.952;6.146;2023-04-04T05:34:59;102922.25;;;-0.44;100.00
31538;BME280;18147;51.952;6.146;2023-04-04T05:37:25;102931.97;;;-0.37;100.00
31538;BME280;18147;51.952;6.146;2023-04-04T05:39:52;102933.97;;;-0.20;100.00
31538;BME280;18147;51.952;6.146;2023-04-04T05:42:17;102934.25;;;-0.02;100.00
31538;BME280;18147;51.952;6.146;2023-04-04T05:44:53;102936.88;;;-0.01;100.00
31538;BME280;18147;51.952;6.146;2023-04-04T05:47:29;102935.59;;;0.34;100.00
31538;BME280;18147;51.952;6.146;2023-04-04T05:49:54;102928.28;;;0.10;100.00
31538;BME280;18147;51.952;6.146;2023-04-04T05:52:23;102931.16;;;0.28;100.00
31538;BME280;18147;51.952;6.146;2023-04-04T05:55:01;102943.56;;;0.43;100.00
31538;BME280;18147;51.952;6.146;2023-04-04T05:57:49;102940.84;;;0.34;100.00
31538;BME280;18147;51.952;6.146;2023-04-04T06:00:35;102937.53;;;0.50;100.00
31538;BME280;18147;51.952;6.146;2023-04-04T06:03:36;102933.47;;;0.76;100.00
31538;BME280;18147;51.952;6.146;2023-04-04T06:06:18;102933.31;;;0.64;100.00
31538;BME280;18147;51.952;6.146;2023-04-04T06:08:49;102937.81;;;0.73;100.00
31538;BME280;18147;51.952;6.146;2023-04-04T06:11:15;102942.41;;;0.94;100.00
31538;BME280;18147;51.952;6.146;2023-04-04T06:13:43;102944.97;;;0.86;100.00
31538;BME280;18147;51.952;6.146;2023-04-04T06:16:24;102942.75;;;1.26;100.00
31538;BME280;18147;51.952;6.146;2023-04-04T06:19:10;102947.59;;;1.87;100.00
31538;BME280;18147;51.952;6.146;2023-04-04T06:21:50;102944.16;;;2.00;100.00
31538;BME280;18147;51.952;6.146;2023-04-04T06:24:16;102936.41;;;2.21;100.00
31538;BME280;18147;51.952;6.146;2023-04-04T06:26:42;102936.13;;;1.80;100.00
31538;BME280;18147;51.952;6.146;2023-04-04T06:29:09;102942.25;;;1.76;100.00
31538;BME280;18147;51.952;6.146;2023-04-04T06:31:37;102939.66;;;1.84;100.00
31538;BME280;18147;51.952;6.146;2023-04-04T06:34:07;102939.75;;;1.99;100.00
31538;BME280;18147;51.952;6.146;2023-04-04T06:36:53;102937.28;;;2.28;100.00
31538;BME280;18147;51.952;6.146;2023-04-04T06:39:21;102953.91;;;2.19;100.00
31538;BME280;18147;51.952;6.146;2023-04-04T06:41:48;102950.38;;;2.14;100.00
31538;BME280;18147;51.952;6.146;2023-04-04T06:44:20;102949.78;;;2.85;100.00
31538;BME280;18147;51.952;6.146;2023-04-04T06:46:55;102935.81;;;3.40;100.00
31538;BME280;18147;51.952;6.146;2023-04-04T06:49:23;102944.56;;;3.10;100.00
31538;BME280;18147;51.952;6.146;2023-04-04T06:52:01;102949.88;;;3.27;100.00
31538;BME280;18147;51.952;6.146;2023-04-04T06:55:01;102940.16;;;4.07;95.16
31538;BME280;18147;51.952;6.146;2023-04-04T06:57:27;102941.03;;;3.86;94.69
31538;BME280;18147;51.952;6.146;2023-04-04T06:59:53;102933.13;;;3.92;92.78
31538;BME280;18147;51.952;6.146;2023-04-04T07:02:25;102934.88;;;3.98;90.27
31538;BME280;18147;51.952;6.146;2023-04-04T07:04:56;102928.72;;;3.86;90.30
31538;BME280;18147;51.952;6.146;2023-04-04T07:07:22;102933.78;;;4.63;90.62
31538;BME280;18147;51.952;6.146;2023-04-04T07:10:07;102940.59;;;5.02;88.95
31538;BME280;18147;51.952;6.146;2023-04-04T07:12:45;102930.75;;;5.24;87.06
31538;BME280;18147;51.952;6.146;2023-04-04T07:15:48;102934.25;;;5.25;83.38
31538;BME280;18147;51.952;6.146;2023-04-04T07:18:29;102928.78;;;5.49;83.32
31538;BME280;18147;51.952;6.146;2023-04-04T07:21:04;102945.03;;;4.97;86.45
31538;BME280;18147;51.952;6.146;2023-04-04T07:23:29;102940.50;;;5.11;86.50
31538;BME280;18147;51.952;6.146;2023-04-04T07:25:55;102936.84;;;5.34;87.85
31538;BME280;18147;51.952;6.146;2023-04-04T07:28:21;102927.75;;;5.65;86.59
31538;BME280;18147;51.952;6.146;2023-04-04T07:30:59;102929.19;;;6.00;83.63
31538;BME280;18147;51.952;6.146;2023-04-04T07:33:40;102936.25;;;6.00;83.79
31538;BME280;18147;51.952;6.146;2023-04-04T07:36:06;102927.03;;;6.34;79.94
31538;BME280;18147;51.952;6.146;2023-04-04T07:38:31;102925.03;;;6.55;80.78
31538;BME280;18147;51.952;6.146;2023-04-04T07:40:57;102924.19;;;6.53;78.42
31538;BME280;18147;51.952;6.146;2023-04-04T07:43:34;102916.53;;;6.91;73.27
31538;BME280;18147;51.952;6.146;2023-04-04T07:46:06;102924.16;;;6.54;75.77
31538;BME280;18147;51.952;6.146;2023-04-04T07:48:50;102928.50;;;6.57;74.62
31538;BME280;18147;51.952;6.146;2023-04-04T07:51:18;102929.00;;;6.88;72.51
31538;BME280;18147;51.952;6.146;2023-04-04T07:54:08;102917.97;;;7.15;69.80
31538;BME280;18147;51.952;6.146;2023-04-04T07:56:34;102914.56;;;7.60;67.64
31538;BME280;18147;51.952;6.146;2023-04-04T07:59:00;102914.06;;;7.36;67.08
31538;BME280;18147;51.952;6.146;2023-04-04T08:01:25;102911.44;;;7.86;67.28
31538;BME280;18147;51.952;6.146;2023-04-04T08:03:51;102906.97;;;7.38;65.63
31538;BME280;18147;51.952;6.146;2023-04-04T08:06:17;102911.34;;;8.77;65.78
31538;BME280;18147;51.952;6.146;2023-04-04T08:08:43;102905.03;;;7.96;66.26
31538;BME280;18147;51.952;6.146;2023-04-04T08:11:11;102915.53;;;8.03;66.85
31538;BME280;18147;51.952;6.146;2023-04-04T08:13:36;102907.34;;;8.57;62.85
31538;BME280;18147;51.952;6.146;2023-04-04T08:16:03;102902.81;;;7.73;62.56
31538;BME280;18147;51.952;6.146;2023-04-04T08:18:29;102901.91;;;8.20;62.91
31538;BME280;18147;51.952;6.146;2023-04-04T08:20:57;102913.84;;;7.99;63.70
31538;BME280;18147;51.952;6.146;2023-04-04T08:23:26;102906.03;;;8.77;61.22
31538;BME280;18147;51.952;6.146;2023-04-04T08:25:53;102911.94;;;8.06;63.72
31538;BME280;18147;51.952;6.146;2023-04-04T08:28:34;102897.44;;;7.76;61.19
31538;BME280;18147;51.952;6.146;2023-04-04T08:31:00;102895.34;;;8.80;59.48
31538;BME280;18147;51.952;6.146;2023-04-04T08:33:25;102900.59;;;7.96;59.87
31538;BME280;18147;51.952;6.146;2023-04-04T08:35:51;102893.25;;;7.64;59.42
31538;BME280;18147;51.952;6.146;2023-04-04T08:38:17;102892.19;;;7.74;58.64
31538;BME280;18147;51.952;6.146;2023-04-04T08:40:46;102904.00;;;8.04;60.32
31538;BME280;18147;51.952;6.146;2023-04-04T08:43:13;102897.81;;;7.56;62.59
31538;BME280;18147;51.952;6.146;2023-04-04T08:45:40;102896.72;;;8.13;58.70
31538;BME280;18147;51.952;6.146;2023-04-04T08:48:12;102892.13;;;7.76;59.07
31538;BME280;18147;51.952;6.146;2023-04-04T08:50:39;102895.91;;;7.64;55.71
31538;BME280;18147;51.952;6.146;2023-04-04T08:53:08;102891.72;;;7.97;56.87
31538;BME280;18147;51.952;6.146;2023-04-04T08:55:41;102893.00;;;7.76;56.88
31538;BME280;18147;51.952;6.146;2023-04-04T08:58:07;102892.47;;;7.58;56.07
31538;BME280;18147;51.952;6.146;2023-04-04T09:00:33;102890.44;;;7.73;56.93
31538;BME280;18147;51.952;6.146;2023-04-04T09:03:19;102889.41;;;8.25;54.42
31538;BME280;18147;51.952;6.146;2023-04-04T09:05:48;102887.56;;;7.84;54.03
31538;BME280;18147;51.952;6.146;2023-04-04T09:08:15;102882.47;;;7.73;52.50
31538;BME280;18147;51.952;6.146;2023-04-04T09:10:43;102886.03;;;7.71;53.28
31538;BME280;18147;51.952;6.146;2023-04-04T09:13:09;102880.00;;;7.61;53.89
31538;BME280;18147;51.952;6.146;2023-04-04T09:15:36;102884.66;;;7.96;54.52
31538;BME280;18147;51.952;6.146;2023-04-04T09:18:03;102879.53;;;8.30;52.62
31538;BME280;18147;51.952;6.146;2023-04-04T09:20:36;102877.78;;;8.29;54.48
31538;BME280;18147;51.952;6.146;2023-04-04T09:23:10;102865.09;;;8.45;52.80
31538;BME280;18147;51.952;6.146;2023-04-04T09:25:36;102875.69;;;8.02;56.67
31538;BME280;18147;51.952;6.146;2023-04-04T09:28:03;102874.00;;;8.81;55.18
31538;BME280;18147;51.952;6.146;2023-04-04T09:30:33;102865.34;;;8.31;56.20
31538;BME280;18147;51.952;6.146;2023-04-04T09:33:03;102872.75;;;8.16;56.10
31538;BME280;18147;51.952;6.146;2023-04-04T09:35:36;102878.97;;;8.58;54.82
31538;BME280;18147;51.952;6.146;2023-04-04T09:38:05;102860.66;;;8.85;52.46
31538;BME280;18147;51.952;6.146;2023-04-04T09:40:31;102863.38;;;9.17;52.44
31538;BME280;18147;51.952;6.146;2023-04-04T09:43:01;102868.31;;;8.58;54.93
31538;BME280;18147;51.952;6.146;2023-04-04T09:45:29;102874.63;;;8.11;55.08
31538;BME280;18147;51.952;6.146;2023-04-04T09:47:55;102869.97;;;8.23;56.36
31538;BME280;18147;51.952;6.146;2023-04-04T09:50:23;102871.81;;;8.20;54.05
31538;BME280;18147;51.952;6.146;2023-04-04T09:52:50;102872.03;;;8.09;54.82
31538;BME280;18147;51.952;6.146;2023-04-04T09:55:16;102876.09;;;8.25;53.86
31538;BME280;18147;51.952;6.146;2023-04-04T09:57:43;102873.72;;;8.12;53.42
31538;BME280;18147;51.952;6.146;2023-04-04T10:00:11;102858.84;;;8.85;52.15
31538;BME280;18147;51.952;6.146;2023-04-04T10:02:45;102862.63;;;9.12;50.65
31538;BME280;18147;51.952;6.146;2023-04-04T10:05:12;102866.28;;;8.71;53.04
31538;BME280;18147;51.952;6.146;2023-04-04T10:07:39;102869.72;;;8.34;56.15
31538;BME280;18147;51.952;6.146;2023-04-04T10:10:05;102863.88;;;8.18;53.36
31538;BME280;18147;51.952;6.146;2023-04-04T10:12:31;102867.31;;;8.22;56.80
31538;BME280;18147;51.952;6.146;2023-04-04T10:14:58;102866.53;;;8.17;54.66
31538;BME280;18147;51.952;6.146;2023-04-04T10:17:29;102857.66;;;8.18;53.25
31538;BME280;18147;51.952;6.146;2023-04-04T10:19:59;102855.31;;;8.46;54.10
31538;BME280;18147;51.952;6.146;2023-04-04T10:22:25;102859.53;;;8.56;56.01
31538;BME280;18147;51.952;6.146;2023-04-04T10:24:51;102854.38;;;8.48;55.04
31538;BME280;18147;51.952;6.146;2023-04-04T10:27:19;102842.03;;;8.83;52.76
31538;BME280;18147;51.952;6.146;2023-04-04T10:29:45;102829.31;;;9.31;49.93
31538;BME280;18147;51.952;6.146;2023-04-04T10:32:16;102838.13;;;8.98;52.11
31538;BME280;18147;51.952;6.146;2023-04-04T10:35:00;102833.19;;;9.52;53.82
31538;BME280;18147;51.952;6.146;2023-04-04T10:37:31;102834.41;;;8.68;51.11
31538;BME280;18147;51.952;6.146;2023-04-04T10:40:08;102835.09;;;8.77;51.84
31538;BME280;18147;51.952;6.146;2023-04-04T10:42:41;102831.97;;;9.31;52.27
31538;BME280;18147;51.952;6.146;2023-04-04T10:45:08;102828.09;;;9.43;50.78
31538;BME280;18147;51.952;6.146;2023-04-04T10:47:41;102830.41;;;9.23;54.63
31538;BME280;18147;51.952;6.146;2023-04-04T10:50:07;102839.38;;;8.85;51.02
31538;BME280;18147;51.952;6.146;2023-04-04T10:52:38;102828.59;;;9.25;52.14
31538;BME280;18147;51.952;6.146;2023-04-04T10:55:06;102826.06;;;9.20;51.47
31538;BME280;18147;51.952;6.146;2023-04-04T10:57:36;102823.56;;;9.47;53.39
31538;BME280;18147;51.952;6.146;2023-04-04T11:00:05;102832.09;;;8.91;53.32
31538;BME280;18147;51.952;6.146;2023-04-04T11:05:17;102824.53;;;9.44;53.55
31538;BME280;18147;51.952;6.146;2023-04-04T11:07:44;102828.09;;;9.43;55.06
31538;BME280;18147;51.952;6.146;2023-04-04T11:10:25;102822.91;;;8.67;52.16
31538;BME280;18147;51.952;6.146;2023-04-04T11:12:52;102811.00;;;8.84;53.15
31538;BME280;18147;51.952;6.146;2023-04-04T11:15:24;102803.19;;;9.12;50.85
31538;BME280;18147;51.952;6.146;2023-04-04T11:17:59;102803.16;;;9.13;51.20
31538;BME280;18147;51.952;6.146;2023-04-04T11:20:34;102807.72;;;9.73;58.98
31538;BME280;18147;51.952;6.146;2023-04-04T11:23:06;102809.75;;;9.65;57.17
31538;BME280;18147;51.952;6.146;2023-04-04T11:25:34;102802.13;;;8.83;54.99
31538;BME280;18147;51.952;6.146;2023-04-04T11:28:24;102789.53;;;9.25;53.21
31538;BME280;18147;51.952;6.146;2023-04-04T11:34:07;102782.03;;;9.07;53.70
31538;BME280;18147;51.952;6.146;2023-04-04T11:44:19;102787.22;;;9.77;54.92
31538;BME280;18147;51.952;6.146;2023-04-04T11:46:45;102780.75;;;9.54;54.04
31538;BME280;18147;51.952;6.146;2023-04-04T11:49:12;102782.38;;;9.91;52.60
31538;BME280;18147;51.952;6.146;2023-04-04T11:51:41;102781.38;;;9.94;53.95
31538;BME280;18147;51.952;6.146;2023-04-04T11:54:14;102775.88;;;9.38;52.59
31538;BME280;18147;51.952;6.146;2023-04-04T11:56:44;102770.75;;;9.63;55.24
31538;BME280;18147;51.952;6.146;2023-04-04T11:59:17;102758.31;;;10.22;52.37
31538;BME280;18147;51.952;6.146;2023-04-04T12:01:44;102762.66;;;9.97;51.01
31538;BME280;18147;51.952;6.146;2023-04-04T12:04:09;102772.16;;;9.43;54.00
31538;BME280;18147;51.952;6.146;2023-04-04T12:06:39;102773.03;;;9.76;51.15
31538;BME280;18147;51.952;6.146;2023-04-04T12:09:05;102762.56;;;9.69;51.54
31538;BME280;18147;51.952;6.146;2023-04-04T12:11:35;102756.50;;;9.64;52.99
31538;BME280;18147;51.952;6.146;2023-04-04T12:14:01;102760.44;;;9.50;52.85
31538;BME280;18147;51.952;6.146;2023-04-04T12:16:27;102744.53;;;10.37;49.50
31538;BME280;18147;51.952;6.146;2023-04-04T12:18:53;102742.84;;;10.05;48.25
31538;BME280;18147;51.952;6.146;2023-04-04T12:21:19;102736.41;;;10.12;49.13
31538;BME280;18147;51.952;6.146;2023-04-04T12:23:46;102748.56;;;9.62;48.91
31538;BME280;18147;51.952;6.146;2023-04-04T12:26:14;102737.56;;;9.74;50.92
31538;BME280;18147;51.952;6.146;2023-04-04T12:28:41;102721.75;;;10.27;48.80
31538;BME280;18147;51.952;6.146;2023-04-04T12:31:10;102719.25;;;10.21;49.54
31538;BME280;18147;51.952;6.146;2023-04-04T12:33:36;102721.09;;;10.19;50.66
31538;BME280;18147;51.952;6.146;2023-04-04T12:36:02;102716.94;;;10.09;49.92
31538;BME280;18147;51.952;6.146;2023-04-04T12:38:28;102722.47;;;10.03;52.34
31538;BME280;18147;51.952;6.146;2023-04-04T12:40:55;102715.38;;;9.74;49.30
31538;BME280;18147;51.952;6.146;2023-04-04T12:43:20;102718.81;;;10.07;52.44
31538;BME280;18147;51.952;6.146;2023-04-04T12:45:49;102719.41;;;10.17;50.16
31538;BME280;18147;51.952;6.146;2023-04-04T12:48:15;102711.00;;;10.30;48.22
31538;BME280;18147;51.952;6.146;2023-04-04T12:50:50;102704.81;;;10.56;50.54
31538;BME280;18147;51.952;6.146;2023-04-04T12:53:23;102694.72;;;10.40;48.66
31538;BME280;18147;51.952;6.146;2023-04-04T12:55:50;102701.25;;;10.29;51.89
31538;BME280;18147;51.952;6.146;2023-04-04T12:58:21;102697.81;;;10.26;52.15
31538;BME280;18147;51.952;6.146;2023-04-04T13:00:49;102691.97;;;9.85;49.52
31538;BME280;18147;51.952;6.146;2023-04-04T13:03:15;102689.88;;;10.24;50.94
31538;BME280;18147;51.952;6.146;2023-04-04T13:05:42;102680.78;;;10.30;49.05
31538;BME280;18147;51.952;6.146;2023-04-04T13:08:09;102675.34;;;10.33;48.54
31538;BME280;18147;51.952;6.146;2023-04-04T13:13:38;102673.94;;;10.49;50.66
31538;BME280;18147;51.952;6.146;2023-04-04T13:16:13;102662.06;;;10.31;47.16
31538;BME280;18147;51.952;6.146;2023-04-04T13:18:52;102661.22;;;10.82;49.08
31538;BME280;18147;51.952;6.146;2023-04-04T13:21:19;102665.75;;;10.54;50.59
31538;BME280;18147;51.952;6.146;2023-04-04T13:23:44;102656.44;;;10.12;48.95
31538;BME280;18147;51.952;6.146;2023-04-04T13:26:10;102656.28;;;10.17;47.86
31538;BME280;18147;51.952;6.146;2023-04-04T13:28:37;102646.06;;;10.31;46.23
31538;BME280;18147;51.952;6.146;2023-04-04T13:31:07;102644.44;;;10.79;49.58